Time;durP1;ratioP1;P1;durP2;ratioP2;P2;SDS_P1;SDS_P2;PMS_P1;PMS_P2;Temp;Humidity;BMP_temperature;BMP_pressure;BME280_temperature;BME280_humidity;BME280_pressure;Samples;Min_cycle;Max_cycle;Signal;HPM_P1;HPM_P2
2021/11/29 00:02:19;;;;;;;4.88;1.88;;;19.20;54.20;;;;;;4752577;30;20712;-82
2021/11/29 00:04:45;;;;;;;3.20;2.05;;;19.10;54.20;;;;;;4738023;30;20208;-81
2021/11/29 00:07:11;;;;;;;5.10;2.15;;;19.20;54.20;;;;;;4708826;30;20645;-82
2021/11/29 00:09:38;;;;;;;5.18;2.20;;;19.20;54.40;;;;;;4737543;30;20185;-81
2021/11/29 00:12:05;;;;;;;2.85;2.00;;;19.20;54.30;;;;;;4723555;30;20189;-82
2021/11/29 00:14:32;;;;;;;4.20;2.22;;;19.20;54.30;;;;;;4766487;30;20240;-82
2021/11/29 00:16:58;;;;;;;5.40;2.22;;;19.20;53.90;;;;;;4789196;30;20168;-81
2021/11/29 00:19:24;;;;;;;3.90;1.92;;;19.10;54.00;;;;;;4788892;30;20170;-82
2021/11/29 00:21:49;;;;;;;3.53;2.15;;;19.20;54.10;;;;;;4788964;30;20255;-82
2021/11/29 00:24:15;;;;;;;3.63;2.00;;;19.10;54.00;;;;;;4773201;30;20220;-82
2021/11/29 00:26:41;;;;;;;4.00;1.95;;;19.10;54.90;;;;;;4757866;30;20218;-82
2021/11/29 00:29:06;;;;;;;4.03;2.10;;;19.10;54.20;;;;;;4788903;30;20194;-82
2021/11/29 00:31:32;;;;;;;2.65;1.85;;;19.10;54.00;;;;;;4788846;30;20232;-81
2021/11/29 00:33:58;;;;;;;4.85;1.83;;;19.10;54.20;;;;;;4772758;30;20232;-81
2021/11/29 00:36:24;;;;;;;3.47;2.13;;;19.10;54.10;;;;;;4772761;30;20175;-81
2021/11/29 00:38:49;;;;;;;3.97;2.25;;;19.10;54.00;;;;;;4772654;30;20168;-82
2021/11/29 00:41:15;;;;;;;2.97;2.15;;;19.10;54.10;;;;;;4772661;30;20179;-82
2021/11/29 00:43:41;;;;;;;5.95;2.20;;;19.10;54.10;;;;;;4773172;30;20179;-81
2021/11/29 00:46:07;;;;;;;4.22;1.80;;;19.10;54.00;;;;;;4788740;30;20256;-81
2021/11/29 00:48:33;;;;;;;4.55;1.98;;;19.10;54.10;;;;;;4788727;30;20525;-82
2021/11/29 00:50:58;;;;;;;4.25;1.90;;;19.20;54.40;;;;;;4788937;30;20300;-81
2021/11/29 00:53:24;;;;;;;4.28;1.80;;;19.10;54.50;;;;;;4772518;30;20171;-81
2021/11/29 00:55:50;;;;;;;4.35;2.00;;;19.10;54.40;;;;;;4757783;30;20172;-81
2021/11/29 00:58:15;;;;;;;4.10;2.10;;;19.10;54.30;;;;;;4788529;30;20167;-81
2021/11/29 01:00:41;;;;;;;3.25;1.90;;;19.10;54.30;;;;;;4772662;30;20179;-81
2021/11/29 01:03:07;;;;;;;3.92;1.85;;;19.10;54.50;;;;;;4788436;30;20172;-82
2021/11/29 01:05:33;;;;;;;3.28;2.10;;;19.10;54.90;;;;;;4788685;30;20199;-82
2021/11/29 01:07:58;;;;;;;5.72;1.73;;;19.10;54.80;;;;;;4772124;30;20243;-82
2021/11/29 01:10:28;;;;;;;5.32;1.98;;;19.10;54.40;;;;;;4788653;30;20179;-81
2021/11/29 01:12:54;;;;;;;3.30;1.88;;;19.10;55.00;;;;;;4772692;30;20163;-81
2021/11/29 01:15:21;;;;;;;3.05;1.80;;;19.10;54.80;;;;;;4772451;30;20159;-81
2021/11/29 01:17:47;;;;;;;2.88;2.00;;;19.10;54.60;;;;;;4788437;30;20191;-81
2021/11/29 01:20:13;;;;;;;4.68;2.33;;;19.10;54.60;;;;;;4788333;30;20560;-82
2021/11/29 01:22:39;;;;;;;4.00;1.95;;;19.00;54.30;;;;;;4757448;30;20172;-81
2021/11/29 01:25:05;;;;;;;3.42;2.00;;;19.10;54.60;;;;;;4757351;30;20201;-82
2021/11/29 01:27:31;;;;;;;3.55;2.10;;;19.10;55.10;;;;;;4772316;30;20175;-81
2021/11/29 01:29:57;;;;;;;2.97;1.98;;;19.10;54.40;;;;;;4772143;30;20172;-82
2021/11/29 01:32:22;;;;;;;3.92;2.00;;;19.00;54.40;;;;;;4772838;30;20252;-81
2021/11/29 01:34:48;;;;;;;4.72;2.20;;;19.00;54.40;;;;;;4787083;30;21014;-81
2021/11/29 01:37:14;;;;;;;2.95;2.00;;;19.10;54.50;;;;;;4788175;30;20202;-81
2021/11/29 01:39:39;;;;;;;2.25;1.88;;;19.10;54.40;;;;;;4788123;30;20415;-81
2021/11/29 01:42:07;;;;;;;3.65;2.00;;;19.00;54.40;;;;;;4772280;30;20167;-81
2021/11/29 01:44:33;;;;;;;3.35;1.95;;;19.10;54.40;;;;;;4757555;30;20164;-81
2021/11/29 01:46:59;;;;;;;2.88;2.15;;;19.00;54.60;;;;;;4757273;30;20172;-82
2021/11/29 01:49:24;;;;;;;4.25;2.08;;;19.00;54.40;;;;;;4772038;30;20182;-81
2021/11/29 01:51:50;;;;;;;2.30;1.85;;;19.00;54.60;;;;;;4772018;30;20188;-82
2021/11/29 01:54:16;;;;;;;3.38;2.00;;;19.00;54.30;;;;;;4786606;30;20172;-81
2021/11/29 01:56:42;;;;;;;4.18;1.95;;;19.10;54.50;;;;;;4771997;30;20168;-82
2021/11/29 01:59:07;;;;;;;4.93;2.00;;;19.10;54.70;;;;;;4772095;30;20160;-82
2021/11/29 02:01:33;;;;;;;3.38;1.95;;;19.00;54.40;;;;;;4774592;30;20172;-82
2021/11/29 02:03:59;;;;;;;5.13;2.08;;;19.00;54.40;;;;;;4790330;30;20180;-81
2021/11/29 02:06:29;;;;;;;2.95;1.90;;;19.00;54.40;;;;;;4790120;30;20200;-81
2021/11/29 02:08:55;;;;;;;3.03;2.05;;;19.00;54.30;;;;;;4760194;30;20238;-81
2021/11/29 02:11:21;;;;;;;4.32;1.70;;;19.00;54.10;;;;;;4791104;30;20167;-81
2021/11/29 02:13:47;;;;;;;2.20;1.65;;;19.00;54.40;;;;;;4775018;30;20163;-82
2021/11/29 02:16:13;;;;;;;3.95;2.00;;;19.00;54.50;;;;;;4790170;30;20223;-81
2021/11/29 02:18:40;;;;;;;2.75;1.80;;;19.00;54.50;;;;;;4774980;30;20159;-82
2021/11/29 02:21:15;;;;;;;4.68;2.38;;;19.00;54.60;;;;;;4760904;30;20676;-81
2021/11/29 02:23:43;;;;;;;3.10;1.88;;;19.00;54.60;;;;;;4761060;30;20546;-82
2021/11/29 02:26:09;;;;;;;3.83;1.90;;;19.00;54.60;;;;;;4745936;30;20206;-81
2021/11/29 02:28:40;;;;;;;3.72;2.00;;;19.00;54.60;;;;;;4790729;30;20164;-81
2021/11/29 02:31:08;;;;;;;2.42;1.80;;;18.90;54.20;;;;;;4790888;30;20164;-81
2021/11/29 02:33:34;;;;;;;2.58;2.00;;;19.00;54.20;;;;;;4774841;30;20160;-82
2021/11/29 02:35:59;;;;;;;4.70;2.33;;;19.00;54.30;;;;;;4774728;30;20175;-81
2021/11/29 02:38:25;;;;;;;3.88;2.08;;;19.00;54.20;;;;;;4774838;30;20167;-82
2021/11/29 02:40:51;;;;;;;2.70;1.80;;;19.00;54.60;;;;;;4789351;30;20175;-81
2021/11/29 02:43:17;;;;;;;3.95;2.20;;;19.00;54.50;;;;;;4774836;30;20186;-81
2021/11/29 02:45:42;;;;;;;3.40;1.77;;;19.00;54.50;;;;;;4774545;30;20206;-81
2021/11/29 02:48:08;;;;;;;3.78;1.98;;;19.00;54.60;;;;;;4790540;30;20203;-81
2021/11/29 02:50:36;;;;;;;4.03;1.80;;;19.00;54.20;;;;;;4774619;30;20160;-81
2021/11/29 02:53:05;;;;;;;2.83;1.80;;;18.90;54.40;;;;;;4759641;30;20160;-81
2021/11/29 02:55:30;;;;;;;2.30;1.75;;;19.00;54.70;;;;;;4760072;30;20175;-81
2021/11/29 02:57:56;;;;;;;3.92;2.00;;;18.90;54.90;;;;;;4790424;30;20647;-81
2021/11/29 03:00:21;;;;;;;3.95;2.13;;;19.00;54.90;;;;;;4774316;30;20224;-81
2021/11/29 03:03:05;;;;;;;2.65;1.85;;;19.00;54.30;;;;;;4790240;30;20191;-81
2021/11/29 03:05:32;;;;;;;3.78;2.00;;;19.00;54.80;;;;;;4759640;30;20195;-81
2021/11/29 03:07:57;;;;;;;3.92;1.90;;;19.00;54.60;;;;;;4773919;30;20231;-81
2021/11/29 03:10:23;;;;;;;2.85;2.17;;;18.90;54.80;;;;;;4789158;30;20555;-81
2021/11/29 03:12:48;;;;;;;3.65;2.13;;;18.90;55.00;;;;;;4773173;30;20239;-81
2021/11/29 03:15:14;;;;;;;3.50;2.10;;;18.90;55.00;;;;;;4790132;30;20164;-81
2021/11/29 03:17:40;;;;;;;3.42;2.10;;;18.90;54.70;;;;;;4789397;30;20168;-81
2021/11/29 03:20:10;;;;;;;2.42;1.90;;;19.00;54.70;;;;;;4774096;30;20168;-81
2021/11/29 03:22:36;;;;;;;4.90;2.35;;;18.90;54.30;;;;;;4790198;30;20160;-81
2021/11/29 03:25:01;;;;;;;5.25;2.00;;;18.90;54.40;;;;;;4773968;30;20214;-82
2021/11/29 03:27:27;;;;;;;5.68;2.20;;;18.90;55.10;;;;;;4789733;30;20248;-81
2021/11/29 03:29:53;;;;;;;3.25;2.10;;;18.90;54.80;;;;;;4789953;30;20160;-82
2021/11/29 03:32:20;;;;;;;3.15;1.88;;;18.90;54.70;;;;;;4773778;30;20156;-81
2021/11/29 03:34:46;;;;;;;3.42;2.10;;;18.90;54.80;;;;;;4773613;30;20156;-81
2021/11/29 03:37:11;;;;;;;2.67;1.98;;;18.90;54.70;;;;;;4773718;30;20630;-81
2021/11/29 03:39:37;;;;;;;3.72;1.98;;;18.90;55.00;;;;;;4773750;30;20170;-82
2021/11/29 03:42:05;;;;;;;3.03;1.83;;;18.90;54.60;;;;;;4773628;30;20209;-81
2021/11/29 03:44:32;;;;;;;3.13;2.10;;;18.90;54.50;;;;;;4789520;30;20683;-82
2021/11/29 03:46:57;;;;;;;4.63;1.95;;;18.90;54.50;;;;;;4743953;30;20569;-81
2021/11/29 03:49:24;;;;;;;3.17;2.00;;;18.90;54.20;;;;;;4773627;30;20178;-81
2021/11/29 03:51:50;;;;;;;4.13;2.13;;;18.80;54.10;;;;;;4789570;30;20230;-81
2021/11/29 03:54:16;;;;;;;3.65;1.80;;;18.90;54.10;;;;;;4773318;30;20201;-81
2021/11/29 03:56:41;;;;;;;4.13;2.28;;;18.90;54.10;;;;;;4758739;30;20191;-81
2021/11/29 03:59:07;;;;;;;2.22;1.90;;;18.90;54.20;;;;;;4758542;30;20628;-81
2021/11/29 04:01:34;;;;;;;4.30;1.95;;;18.90;54.30;;;;;;4758401;30;20620;-81
2021/11/29 04:04:01;;;;;;;3.35;1.90;;;18.80;54.20;;;;;;4788539;30;20187;-81
2021/11/29 04:06:27;;;;;;;2.35;1.83;;;18.90;54.30;;;;;;4773035;30;20211;-81
2021/11/29 04:08:52;;;;;;;2.97;1.88;;;18.90;54.60;;;;;;4772956;30;20235;-81
2021/11/29 04:11:20;;;;;;;2.83;1.80;;;18.80;54.30;;;;;;4772901;30;20203;-81
2021/11/29 04:13:46;;;;;;;4.15;1.90;;;18.90;53.50;;;;;;4789106;30;20189;-81
2021/11/29 04:16:13;;;;;;;2.05;1.80;;;18.90;53.50;;;;;;4758169;30;20171;-82
2021/11/29 04:18:41;;;;;;;7.90;2.08;;;19.00;53.30;;;;;;4789061;30;20163;-82
2021/11/29 04:21:09;;;;;;;3.17;2.00;;;19.00;53.20;;;;;;4772997;30;20164;-81
2021/11/29 04:23:35;;;;;;;2.67;1.83;;;19.10;53.20;;;;;;4789106;29;20188;-81
2021/11/29 04:26:02;;;;;;;5.82;1.67;;;19.20;53.00;;;;;;4757946;30;20226;-81
2021/11/29 04:28:28;;;;;;;5.18;2.00;;;19.20;52.90;;;;;;4758263;30;20190;-81
2021/11/29 04:30:54;;;;;;;3.17;2.08;;;19.20;52.90;;;;;;4787754;30;20262;-81
2021/11/29 04:33:20;;;;;;;4.07;1.90;;;19.30;52.90;;;;;;4788789;30;20251;-81
2021/11/29 04:35:45;;;;;;;3.42;1.90;;;19.30;52.80;;;;;;4772716;30;20221;-81
2021/11/29 04:38:11;;;;;;;3.22;1.65;;;19.30;52.70;;;;;;4772880;30;20188;-82
2021/11/29 04:40:37;;;;;;;2.13;1.88;;;19.40;52.50;;;;;;4772672;30;20198;-82
2021/11/29 04:43:04;;;;;;;3.65;1.60;;;19.40;52.60;;;;;;4772793;30;20174;-81
2021/11/29 04:45:30;;;;;;;2.78;1.77;;;19.40;52.40;;;;;;4772379;30;20226;-81
2021/11/29 04:47:56;;;;;;;4.15;2.10;;;19.40;52.30;;;;;;4788435;30;20220;-81
2021/11/29 04:50:22;;;;;;;2.90;1.80;;;19.40;51.90;;;;;;4788322;30;20171;-81
2021/11/29 04:52:48;;;;;;;2.58;1.98;;;19.50;52.10;;;;;;4772952;30;20163;-81
2021/11/29 04:55:14;;;;;;;2.88;1.92;;;19.40;51.80;;;;;;4789031;30;20167;-81
2021/11/29 04:57:40;;;;;;;2.17;1.55;;;19.50;51.90;;;;;;4773229;30;20168;-82
2021/11/29 05:00:07;;;;;;;2.70;1.80;;;19.50;51.70;;;;;;4789195;30;20221;-82
2021/11/29 05:02:32;;;;;;;4.25;1.75;;;19.50;51.60;;;;;;4787881;30;20179;-81
2021/11/29 05:04:58;;;;;;;3.28;1.60;;;19.60;51.30;;;;;;4772787;30;20195;-81
2021/11/29 05:07:25;;;;;;;2.83;1.70;;;19.60;51.50;;;;;;4773138;30;20234;-81
2021/11/29 05:09:51;;;;;;;3.00;1.48;;;19.60;51.30;;;;;;4758606;30;20160;-82
2021/11/29 05:12:17;;;;;;;2.75;1.85;;;19.60;51.20;;;;;;4773158;30;20172;-82
2021/11/29 05:14:43;;;;;;;1.80;1.65;;;19.60;51.50;;;;;;4788405;30;20171;-82
2021/11/29 05:17:09;;;;;;;3.03;1.98;;;19.60;51.20;;;;;;4757863;30;20186;-81
2021/11/29 05:19:35;;;;;;;3.20;1.88;;;19.60;51.10;;;;;;4758117;30;20172;-82
2021/11/29 05:22:01;;;;;;;2.85;1.55;;;19.60;51.40;;;;;;4757866;30;20207;-82
2021/11/29 05:24:27;;;;;;;2.97;1.73;;;19.60;51.20;;;;;;4772714;30;20513;-82
2021/11/29 05:26:53;;;;;;;2.97;1.70;;;19.60;51.30;;;;;;4772269;30;20191;-81
2021/11/29 05:29:18;;;;;;;2.33;1.55;;;19.50;51.20;;;;;;4743460;30;20171;-82
2021/11/29 05:31:44;;;;;;;3.00;1.80;;;19.60;51.20;;;;;;4757326;30;20164;-81
2021/11/29 05:34:10;;;;;;;2.38;1.80;;;19.60;51.00;;;;;;4772483;29;20169;-82
2021/11/29 05:36:37;;;;;;;1.83;1.60;;;19.60;50.90;;;;;;4789653;30;20213;-82
2021/11/29 05:39:03;;;;;;;3.53;1.73;;;19.50;50.70;;;;;;4791470;30;20305;-82
2021/11/29 05:41:29;;;;;;;2.70;1.70;;;19.50;50.60;;;;;;4760738;30;20163;-82
2021/11/29 05:43:54;;;;;;;3.63;1.77;;;19.50;51.10;;;;;;4775556;30;20183;-82
2021/11/29 05:46:22;;;;;;;6.05;1.80;;;19.50;51.10;;;;;;4775233;30;20214;-82
2021/11/29 05:48:49;;;;;;;2.03;1.48;;;19.50;50.90;;;;;;4775524;30;20237;-82
2021/11/29 05:51:14;;;;;;;3.05;1.65;;;19.50;51.10;;;;;;4775229;30;20608;-82
2021/11/29 05:53:40;;;;;;;3.78;1.60;;;19.50;50.90;;;;;;4775478;30;20213;-80
2021/11/29 05:56:06;;;;;;;1.95;1.70;;;19.60;50.70;;;;;;4760620;30;20195;-81
2021/11/29 05:58:32;;;;;;;3.55;1.90;;;19.40;50.90;;;;;;4791910;30;20159;-81
2021/11/29 06:00:58;;;;;;;5.30;1.83;;;19.60;51.00;;;;;;4760776;30;20168;-81
2021/11/29 06:03:24;;;;;;;3.08;1.77;;;19.50;50.60;;;;;;4775557;30;20175;-81
2021/11/29 06:05:51;;;;;;;3.60;1.98;;;19.50;50.70;;;;;;4775424;30;20196;-81
2021/11/29 06:08:16;;;;;;;3.28;2.00;;;19.60;50.80;;;;;;4775161;30;20227;-82
2021/11/29 06:10:43;;;;;;;2.22;1.70;;;19.60;50.70;;;;;;4775142;30;20224;-82
2021/11/29 06:13:09;;;;;;;1.60;1.40;;;19.50;50.60;;;;;;4791266;30;20236;-81
2021/11/29 06:15:35;;;;;;;3.67;1.80;;;19.60;50.80;;;;;;4789990;30;20730;-81
2021/11/29 06:18:01;;;;;;;3.42;1.85;;;19.60;50.80;;;;;;4791323;30;20178;-81
2021/11/29 06:20:26;;;;;;;1.88;1.65;;;19.50;50.70;;;;;;4775083;30;20171;-81
2021/11/29 06:22:53;;;;;;;2.83;1.60;;;19.60;50.60;;;;;;4774904;30;20171;-82
2021/11/29 06:25:21;;;;;;;3.38;1.58;;;19.60;50.50;;;;;;4774911;30;20549;-81
2021/11/29 06:27:46;;;;;;;1.75;1.55;;;19.50;50.50;;;;;;4775033;30;20244;-81
2021/11/29 06:30:12;;;;;;;2.45;1.80;;;19.60;50.50;;;;;;4745476;30;20175;-81
2021/11/29 06:32:38;;;;;;;1.77;1.60;;;19.50;50.40;;;;;;4760500;30;20186;-81
2021/11/29 06:35:05;;;;;;;2.55;1.60;;;19.50;50.50;;;;;;4790862;30;20669;-81
2021/11/29 06:37:30;;;;;;;2.75;1.80;;;19.60;50.50;;;;;;4790589;30;20262;-81
2021/11/29 06:39:57;;;;;;;3.08;1.67;;;19.60;50.40;;;;;;4791059;30;20242;-81
2021/11/29 06:42:23;;;;;;;2.55;1.80;;;19.60;50.60;;;;;;4774601;30;20183;-81
2021/11/29 06:44:48;;;;;;;2.33;1.60;;;19.60;50.70;;;;;;4790815;30;20243;-81
2021/11/29 06:47:14;;;;;;;3.00;1.65;;;19.60;50.60;;;;;;4790484;29;20198;-82
2021/11/29 06:49:40;;;;;;;1.52;1.42;;;19.60;50.20;;;;;;4789615;30;20207;-81
2021/11/29 06:52:06;;;;;;;2.50;1.60;;;19.60;50.20;;;;;;4790775;30;20164;-81
2021/11/29 06:54:35;;;;;;;2.63;1.80;;;19.60;50.30;;;;;;4790714;30;20168;-82
2021/11/29 06:57:01;;;;;;;1.90;1.70;;;19.60;50.40;;;;;;4760475;30;20211;-81
2021/11/29 06:59:28;;;;;;;1.90;1.70;;;19.60;50.40;;;;;;4774792;30;20650;-81
2021/11/29 07:01:54;;;;;;;1.83;1.33;;;19.60;50.30;;;;;;4774747;30;20160;-82
2021/11/29 07:04:20;;;;;;;3.45;1.50;;;19.60;50.20;;;;;;4790461;30;20168;-81
2021/11/29 07:06:46;;;;;;;1.90;1.70;;;19.60;50.20;;;;;;4792028;30;20202;-81
2021/11/29 07:09:13;;;;;;;3.38;1.90;;;19.60;50.40;;;;;;4793942;30;20253;-81
2021/11/29 07:11:38;;;;;;;1.90;1.63;;;19.60;50.30;;;;;;4761422;30;20179;-84
2021/11/29 07:14:04;;;;;;;1.90;1.70;;;19.60;50.10;;;;;;4762148;30;20243;-81
2021/11/29 07:16:34;;;;;;;3.95;1.95;;;19.60;50.30;;;;;;4755721;30;20610;-82
2021/11/29 07:19:00;;;;;;;2.95;1.50;;;19.60;50.10;;;;;;4780510;30;20255;-81
2021/11/29 07:21:25;;;;;;;2.15;1.75;;;19.60;50.30;;;;;;4760252;30;20605;-81
2021/11/29 07:23:51;;;;;;;1.60;1.50;;;19.60;50.30;;;;;;4791256;30;20164;-81
2021/11/29 07:26:30;;;;;;;2.25;1.75;;;19.60;50.30;;;;;;4789197;30;20218;-81
2021/11/29 07:28:55;;;;;;;2.90;1.60;;;19.60;49.90;;;;;;4761252;30;20187;-81
2021/11/29 07:31:22;;;;;;;1.65;1.42;;;19.60;49.80;;;;;;4791316;30;20168;-80
2021/11/29 07:34:00;;;;;;;4.30;1.60;;;19.60;50.10;;;;;;4774810;30;20172;-81
2021/11/29 07:36:31;;;;;;;2.13;1.50;;;19.60;49.40;;;;;;4791635;30;20175;-81
2021/11/29 07:38:57;;;;;;;1.88;1.50;;;19.60;49.70;;;;;;4761391;30;20215;-81
2021/11/29 07:41:23;;;;;;;4.82;2.08;;;19.60;50.00;;;;;;4761215;30;20202;-81
2021/11/29 07:43:49;;;;;;;3.22;1.70;;;19.60;49.50;;;;;;4791992;30;20172;-81
2021/11/29 07:46:16;;;;;;;2.55;1.55;;;19.60;49.90;;;;;;4774649;30;20340;-82
2021/11/29 07:48:42;;;;;;;2.40;1.60;;;19.50;49.10;;;;;;4774353;30;20217;-81
2021/11/29 07:51:08;;;;;;;2.53;1.48;;;19.70;48.50;;;;;;4793347;30;20182;-82
2021/11/29 07:53:34;;;;;;;2.80;1.38;;;19.60;48.00;;;;;;4761656;30;20593;-81
2021/11/29 07:56:00;;;;;;;1.88;1.40;;;19.60;48.10;;;;;;4776428;30;20567;-81
2021/11/29 07:58:27;;;;;;;4.55;1.55;;;19.70;48.80;;;;;;4746902;30;20176;-82
2021/11/29 08:00:54;;;;;;;1.55;1.38;;;19.70;47.90;;;;;;4765828;30;20183;-82
2021/11/29 08:03:20;;;;;;;1.65;1.50;;;19.70;48.70;;;;;;4748815;30;20183;-82
2021/11/29 08:05:46;;;;;;;2.70;1.73;;;19.70;48.80;;;;;;4780670;30;20239;-81
2021/11/29 08:08:11;;;;;;;2.30;1.65;;;19.70;49.60;;;;;;4752966;30;20227;-82
2021/11/29 08:10:38;;;;;;;5.75;1.90;;;19.70;49.90;;;;;;4780512;30;20184;-83
2021/11/29 08:13:04;;;;;;;1.60;1.35;;;19.70;50.10;;;;;;4764332;30;20524;-82
2021/11/29 08:15:31;;;;;;;1.95;1.58;;;19.70;50.00;;;;;;4764651;30;20160;-81
2021/11/29 08:17:56;;;;;;;2.05;1.50;;;19.70;49.90;;;;;;4763663;30;20186;-82
2021/11/29 08:20:24;;;;;;;2.22;1.70;;;19.80;49.80;;;;;;4775902;30;20159;-80
2021/11/29 08:22:51;;;;;;;1.98;1.77;;;19.80;48.80;;;;;;4776333;30;20282;-82
2021/11/29 08:25:17;;;;;;;1.55;1.42;;;19.80;49.20;;;;;;4760268;30;20267;-81
2021/11/29 08:27:43;;;;;;;2.80;1.80;;;19.90;49.10;;;;;;4760044;30;20223;-81
2021/11/29 08:30:10;;;;;;;1.33;1.23;;;19.80;49.30;;;;;;4790485;30;20263;-80
2021/11/29 08:32:37;;;;;;;2.08;1.42;;;19.80;49.40;;;;;;4791299;30;20187;-82
2021/11/29 08:35:03;;;;;;;3.38;2.00;;;19.80;49.50;;;;;;4774790;30;20236;-79
2021/11/29 08:37:29;;;;;;;3.15;1.60;;;19.90;49.80;;;;;;4758838;30;20194;-80
2021/11/29 08:39:55;;;;;;;3.10;1.70;;;19.90;49.90;;;;;;4773282;30;20163;-81
2021/11/29 08:42:20;;;;;;;1.95;1.60;;;19.90;49.70;;;;;;4772812;30;20228;-81
2021/11/29 08:44:55;;;;;;;2.22;1.52;;;19.80;49.20;;;;;;4743779;30;20183;-80
2021/11/29 08:47:21;;;;;;;4.65;1.73;;;19.90;49.40;;;;;;4741415;30;20270;-81
2021/11/29 08:49:47;;;;;;;3.42;1.70;;;19.80;49.10;;;;;;4771042;30;20597;-80
2021/11/29 08:52:13;;;;;;;2.75;1.83;;;19.80;50.20;;;;;;4789184;30;20176;-78
2021/11/29 08:54:40;;;;;;;2.03;1.67;;;19.80;49.10;;;;;;4758952;30;20567;-80
2021/11/29 08:57:07;;;;;;;5.80;1.60;;;19.80;48.70;;;;;;4773430;30;20477;-80
2021/11/29 08:59:33;;;;;;;3.25;1.63;;;19.80;48.90;;;;;;4772997;30;20160;-81
2021/11/29 09:01:59;;;;;;;2.33;1.60;;;19.80;48.90;;;;;;4788441;30;20185;-80
2021/11/29 09:04:24;;;;;;;2.00;1.40;;;19.80;49.00;;;;;;4789286;30;20297;-80
2021/11/29 09:06:50;;;;;;;4.95;1.83;;;19.80;49.00;;;;;;4772947;30;20198;-81
2021/11/29 09:09:16;;;;;;;3.30;1.60;;;19.80;49.70;;;;;;4772644;30;20719;-81
2021/11/29 09:11:43;;;;;;;2.03;1.50;;;19.80;49.40;;;;;;4790878;30;20171;-80
2021/11/29 09:14:09;;;;;;;2.38;1.60;;;19.70;49.90;;;;;;4754672;30;20184;-81
2021/11/29 09:16:34;;;;;;;1.50;1.40;;;19.80;49.40;;;;;;4739745;30;20283;-79
2021/11/29 09:19:00;;;;;;;4.22;1.63;;;19.80;49.80;;;;;;4740189;30;20563;-80
2021/11/29 09:21:26;;;;;;;6.80;1.70;;;19.70;49.20;;;;;;4719482;30;20185;-79
2021/11/29 09:23:52;;;;;;;4.15;1.85;;;19.80;49.40;;;;;;4739584;30;20315;-80
2021/11/29 09:26:17;;;;;;;2.30;1.70;;;19.80;49.30;;;;;;4724253;30;20303;-80
2021/11/29 09:28:43;;;;;;;4.53;1.80;;;19.80;49.30;;;;;;4723080;30;20193;-80
2021/11/29 09:31:10;;;;;;;2.85;1.60;;;19.80;49.60;;;;;;4737018;30;20199;-80
2021/11/29 09:33:37;;;;;;;4.93;2.00;;;19.80;50.00;;;;;;4733218;30;20201;-80
2021/11/29 09:36:03;;;;;;;5.13;1.80;;;19.80;49.60;;;;;;4719809;30;20170;-80
2021/11/29 09:38:29;;;;;;;3.72;1.60;;;19.80;49.50;;;;;;4705073;30;20190;-80
2021/11/29 09:40:54;;;;;;;2.25;1.80;;;19.70;49.40;;;;;;4725941;30;20201;-81
2021/11/29 09:43:40;;;;;;;5.07;1.60;;;19.80;49.20;;;;;;4723604;30;20193;-80
2021/11/29 09:46:09;;;;;;;3.20;1.70;;;19.80;49.10;;;;;;4766175;30;20226;-79
2021/11/29 09:48:35;;;;;;;5.13;2.00;;;19.80;49.30;;;;;;4760840;30;20603;-80
2021/11/29 09:51:01;;;;;;;3.90;1.70;;;19.80;49.90;;;;;;4761594;30;20171;-80
2021/11/29 09:53:30;;;;;;;4.03;1.58;;;19.80;49.40;;;;;;4776371;30;20186;-81
2021/11/29 09:56:00;;;;;;;2.47;1.60;;;19.80;49.70;;;;;;4763901;30;20524;-80
2021/11/29 09:58:26;;;;;;;5.95;1.75;;;19.80;49.50;;;;;;4776862;30;20175;-80
2021/11/29 10:00:54;;;;;;;1.90;1.58;;;19.80;49.90;;;;;;4794576;30;20624;-82
2021/11/29 10:03:20;;;;;;;3.17;1.52;;;19.80;49.50;;;;;;4776611;30;20171;-81
2021/11/29 10:05:46;;;;;;;5.53;1.50;;;19.80;49.40;;;;;;4759063;30;20267;-80
2021/11/29 10:08:28;;;;;;;5.93;1.70;;;19.80;49.30;;;;;;4792767;30;20223;-80
2021/11/29 10:10:58;;;;;;;4.90;1.52;;;19.80;49.10;;;;;;4764910;30;20167;-81
2021/11/29 10:13:25;;;;;;;3.90;1.60;;;19.80;49.40;;;;;;4766700;30;20232;-81
2021/11/29 10:15:51;;;;;;;2.47;1.60;;;19.80;49.20;;;;;;4767000;30;20191;-81
2021/11/29 10:18:24;;;;;;;3.95;1.70;;;19.80;48.70;;;;;;4769093;30;20184;-81
2021/11/29 10:21:00;;;;;;;4.10;1.55;;;19.80;49.20;;;;;;4762032;30;20189;-82
2021/11/29 10:23:32;;;;;;;4.40;1.80;;;19.80;49.70;;;;;;4760290;30;20168;-81
2021/11/29 10:25:58;;;;;;;9.05;1.75;;;19.70;49.40;;;;;;4762291;30;20224;-81
2021/11/29 10:28:32;;;;;;;3.35;1.67;;;19.80;49.10;;;;;;4761855;30;20161;-81
2021/11/29 10:31:23;;;;;;;2.53;1.55;;;19.80;49.50;;;;;;4760551;30;20184;-81
2021/11/29 10:34:10;;;;;;;5.18;1.95;;;19.80;49.90;;;;;;4761924;30;20218;-79
2021/11/29 10:36:56;;;;;;;3.83;1.80;;;19.80;49.60;;;;;;4746590;30;20251;-80
2021/11/29 10:39:27;;;;;;;3.35;1.60;;;19.80;49.40;;;;;;4752236;30;20308;-81
2021/11/29 10:41:57;;;;;;;4.50;1.63;;;19.70;49.80;;;;;;4752164;30;20269;-81
2021/11/29 10:44:24;;;;;;;5.45;1.80;;;19.80;49.70;;;;;;4751758;30;20185;-82
2021/11/29 10:46:53;;;;;;;2.80;1.58;;;19.80;49.90;;;;;;4761718;30;20224;-82
2021/11/29 10:49:20;;;;;;;5.88;2.00;;;19.80;48.50;;;;;;4754662;30;20267;-82
2021/11/29 10:51:48;;;;;;;2.70;1.65;;;19.80;49.40;;;;;;4757442;30;20204;-81
2021/11/29 10:54:18;;;;;;;3.13;1.63;;;19.80;49.50;;;;;;4762030;30;20546;-82
2021/11/29 10:56:48;;;;;;;3.63;1.65;;;19.70;49.60;;;;;;4761156;30;20209;-80
2021/11/29 10:59:19;;;;;;;2.55;1.50;;;19.80;49.60;;;;;;4785578;30;20246;-79
2021/11/29 11:01:50;;;;;;;4.32;1.80;;;19.80;49.20;;;;;;4755700;30;20214;-79
2021/11/29 11:04:37;;;;;;;3.58;1.80;;;19.80;49.50;;;;;;4785958;30;20657;-79
2021/11/29 11:07:08;;;;;;;2.42;1.48;;;19.80;49.10;;;;;;4772561;30;20198;-78
2021/11/29 11:09:35;;;;;;;3.67;1.50;;;19.80;49.60;;;;;;4771743;30;20223;-79
2021/11/29 11:12:04;;;;;;;3.25;1.50;;;19.80;50.30;;;;;;4755069;30;20183;-79
2021/11/29 11:14:34;;;;;;;3.17;1.83;;;19.80;48.70;;;;;;4769470;30;20187;-78
2021/11/29 11:17:03;;;;;;;3.53;1.52;;;19.90;49.60;;;;;;4769172;30;20707;-77
2021/11/29 11:19:39;;;;;;;2.30;1.60;;;19.80;49.40;;;;;;4769752;30;20176;-78
2021/11/29 11:22:23;;;;;;;3.72;2.00;;;19.90;49.80;;;;;;4770276;30;20298;-79
2021/11/29 11:24:54;;;;;;;4.53;1.42;;;19.80;49.40;;;;;;4768991;30;20187;-79
2021/11/29 11:27:21;;;;;;;5.65;2.03;;;19.80;49.10;;;;;;4784899;30;20168;-78
2021/11/29 11:29:53;;;;;;;3.13;1.83;;;19.80;49.90;;;;;;4755283;30;20184;-78
2021/11/29 11:32:30;;;;;;;2.25;1.73;;;19.80;49.10;;;;;;4753266;30;20183;-78
2021/11/29 11:35:03;;;;;;;2.38;1.60;;;19.80;49.50;;;;;;4768449;30;20187;-80
2021/11/29 11:37:40;;;;;;;5.20;1.75;;;19.80;48.90;;;;;;4781978;30;20160;-78
2021/11/29 11:40:10;;;;;;;3.50;1.65;;;19.80;49.30;;;;;;4783536;30;20164;-77
2021/11/29 11:42:36;;;;;;;3.25;1.52;;;19.80;49.60;;;;;;4799174;30;20160;-77
2021/11/29 11:45:08;;;;;;;3.22;1.60;;;19.80;48.90;;;;;;4783148;30;20167;-80
2021/11/29 11:47:37;;;;;;;2.50;1.58;;;19.80;49.30;;;;;;4799678;30;20191;-78
2021/11/29 11:50:04;;;;;;;6.13;1.88;;;19.80;49.10;;;;;;4769887;30;20527;-77
2021/11/29 11:52:30;;;;;;;3.38;1.70;;;19.80;49.10;;;;;;4755463;30;20184;-78
2021/11/29 11:54:58;;;;;;;1.95;1.38;;;19.90;48.80;;;;;;4769840;30;20324;-79
2021/11/29 11:57:24;;;;;;;4.30;1.80;;;19.90;48.90;;;;;;4779346;30;20216;-81
2021/11/29 12:00:15;;;;;;;2.72;1.80;;;19.80;49.70;;;;;;4778087;30;20239;-79
2021/11/29 12:03:06;;;;;;;4.45;1.70;;;19.90;48.80;;;;;;4771147;30;20251;-81
2021/11/29 12:05:38;;;;;;;2.08;1.60;;;19.80;48.50;;;;;;4775566;30;20211;-80
2021/11/29 12:08:04;;;;;;;6.22;1.98;;;19.90;48.50;;;;;;4769849;30;20799;-80
2021/11/29 12:10:39;;;;;;;5.25;1.60;;;19.90;48.00;;;;;;4782998;30;20195;-80
2021/11/29 12:13:11;;;;;;;2.72;1.52;;;19.90;48.40;;;;;;4784613;30;20235;-79
2021/11/29 12:15:41;;;;;;;2.03;1.60;;;19.80;49.10;;;;;;4783776;30;20236;-80
2021/11/29 12:18:08;;;;;;;6.85;1.70;;;19.80;48.60;;;;;;4768769;30;20171;-79
2021/11/29 12:20:35;;;;;;;6.75;2.30;;;19.80;48.40;;;;;;4783169;30;20243;-80
2021/11/29 12:23:04;;;;;;;7.28;1.90;;;19.80;48.50;;;;;;4779919;30;20175;-80
2021/11/29 12:25:31;;;;;;;9.15;1.95;;;19.80;49.00;;;;;;4779295;30;20230;-81
2021/11/29 12:28:01;;;;;;;6.75;1.60;;;19.80;48.10;;;;;;4766437;30;20209;-80
2021/11/29 12:30:44;;;;;;;6.20;1.70;;;19.80;49.20;;;;;;4781642;30;20160;-81
2021/11/29 12:33:13;;;;;;;9.60;2.20;;;19.80;48.00;;;;;;4780890;30;20163;-81
2021/11/29 12:35:42;;;;;;;6.68;1.90;;;19.80;48.90;;;;;;4766390;30;20544;-81
2021/11/29 12:38:12;;;;;;;7.70;1.90;;;19.80;48.30;;;;;;4781507;30;20160;-81
2021/11/29 12:40:43;;;;;;;4.72;1.70;;;19.80;49.00;;;;;;4781250;30;20635;-79
2021/11/29 12:43:12;;;;;;;7.35;1.90;;;19.80;49.50;;;;;;4767564;30;20532;-81
2021/11/29 12:45:42;;;;;;;2.83;1.80;;;19.80;48.30;;;;;;4767723;30;20214;-80
2021/11/29 12:48:10;;;;;;;6.30;1.60;;;19.80;49.00;;;;;;4798100;30;20208;-80
2021/11/29 12:50:52;;;;;;;2.83;1.92;;;19.80;48.10;;;;;;4752667;30;20258;-81